sensor_id;sensor_type;location;lat;lon;timestamp;temperature;humidity
35541;DHT22;21650;48.840;9.162;2022-11-11T00:00:25;6.30;99.90
35541;DHT22;21650;48.840;9.162;2022-11-11T00:02:53;6.30;99.90
35541;DHT22;21650;48.840;9.162;2022-11-11T00:05:19;6.30;99.90
35541;DHT22;21650;48.840;9.162;2022-11-11T00:07:46;6.30;99.90
35541;DHT22;21650;48.840;9.162;2022-11-11T00:10:11;6.20;99.90
35541;DHT22;21650;48.840;9.162;2022-11-11T00:12:37;6.30;99.90
35541;DHT22;21650;48.840;9.162;2022-11-11T00:15:02;6.20;99.90
35541;DHT22;21650;48.840;9.162;2022-11-11T00:17:28;6.20;99.90
35541;DHT22;21650;48.840;9.162;2022-11-11T00:20:12;6.20;99.90
35541;DHT22;21650;48.840;9.162;2022-11-11T00:22:56;6.20;99.90
35541;DHT22;21650;48.840;9.162;2022-11-11T00:25:58;6.20;99.90
35541;DHT22;21650;48.840;9.162;2022-11-11T00:28:24;6.20;99.90
35541;DHT22;21650;48.840;9.162;2022-11-11T00:30:49;6.10;99.90
35541;DHT22;21650;48.840;9.162;2022-11-11T00:33:15;6.10;99.90
35541;DHT22;21650;48.840;9.162;2022-11-11T00:35:40;6.00;99.90
35541;DHT22;21650;48.840;9.162;2022-11-11T00:38:18;6.00;99.90
35541;DHT22;21650;48.840;9.162;2022-11-11T00:41:02;6.00;99.90
35541;DHT22;21650;48.840;9.162;2022-11-11T00:43:28;5.90;99.90
35541;DHT22;21650;48.840;9.162;2022-11-11T00:45:54;6.00;99.90
35541;DHT22;21650;48.840;9.162;2022-11-11T00:48:40;6.00;99.90
35541;DHT22;21650;48.840;9.162;2022-11-11T00:51:24;6.00;99.90
35541;DHT22;21650;48.840;9.162;2022-11-11T00:53:49;6.00;99.90
35541;DHT22;21650;48.840;9.162;2022-11-11T00:56:15;5.90;99.90
35541;DHT22;21650;48.840;9.162;2022-11-11T00:58:41;5.90;99.90
35541;DHT22;21650;48.840;9.162;2022-11-11T01:01:06;5.90;99.90
35541;DHT22;21650;48.840;9.162;2022-11-11T01:03:32;5.80;99.90
35541;DHT22;21650;48.840;9.162;2022-11-11T01:06:01;5.80;99.90
35541;DHT22;21650;48.840;9.162;2022-11-11T01:08:27;5.80;99.90
35541;DHT22;21650;48.840;9.162;2022-11-11T01:10:53;5.90;99.90
35541;DHT22;21650;48.840;9.162;2022-11-11T01:13:24;5.90;99.90
35541;DHT22;21650;48.840;9.162;2022-11-11T01:16:04;5.90;99.90
35541;DHT22;21650;48.840;9.162;2022-11-11T01:18:30;5.80;99.90
35541;DHT22;21650;48.840;9.162;2022-11-11T01:21:11;5.80;99.90
35541;DHT22;21650;48.840;9.162;2022-11-11T01:23:39;5.70;99.90
35541;DHT22;21650;48.840;9.162;2022-11-11T01:26:22;5.80;99.90
35541;DHT22;21650;48.840;9.162;2022-11-11T01:28:49;5.80;99.90
35541;DHT22;21650;48.840;9.162;2022-11-11T01:31:16;5.80;99.90
35541;DHT22;21650;48.840;9.162;2022-11-11T01:33:42;5.80;99.90
35541;DHT22;21650;48.840;9.162;2022-11-11T01:36:14;5.70;99.90
35541;DHT22;21650;48.840;9.162;2022-11-11T01:38:40;5.80;99.90
35541;DHT22;21650;48.840;9.162;2022-11-11T01:41:09;5.70;99.90
35541;DHT22;21650;48.840;9.162;2022-11-11T01:43:54;5.70;99.90
35541;DHT22;21650;48.840;9.162;2022-11-11T01:46:29;5.70;99.90
35541;DHT22;21650;48.840;9.162;2022-11-11T01:49:01;5.70;99.90
35541;DHT22;21650;48.840;9.162;2022-11-11T01:51:59;5.70;99.90
35541;DHT22;21650;48.840;9.162;2022-11-11T01:57:25;5.60;99.90
35541;DHT22;21650;48.840;9.162;2022-11-11T01:59:59;5.60;99.90
35541;DHT22;21650;48.840;9.162;2022-11-11T02:02:37;5.60;99.90
35541;DHT22;21650;48.840;9.162;2022-11-11T02:05:04;5.70;99.90
35541;DHT22;21650;48.840;9.162;2022-11-11T02:07:49;5.60;99.90
35541;DHT22;21650;48.840;9.162;2022-11-11T02:10:18;5.50;99.90
35541;DHT22;21650;48.840;9.162;2022-11-11T02:12:46;5.50;99.90
35541;DHT22;21650;48.840;9.162;2022-11-11T02:15:30;5.50;99.90
35541;DHT22;21650;48.840;9.162;2022-11-11T02:17:56;5.50;99.90
35541;DHT22;21650;48.840;9.162;2022-11-11T02:20:24;5.50;99.90
35541;DHT22;21650;48.840;9.162;2022-11-11T02:22:55;5.50;99.90
35541;DHT22;21650;48.840;9.162;2022-11-11T02:25:25;5.50;99.90
35541;DHT22;21650;48.840;9.162;2022-11-11T02:27:56;5.50;99.90
35541;DHT22;21650;48.840;9.162;2022-11-11T02:30:24;5.60;99.90
35541;DHT22;21650;48.840;9.162;2022-11-11T02:32:50;5.60;99.90
35541;DHT22;21650;48.840;9.162;2022-11-11T02:35:21;5.50;99.90
35541;DHT22;21650;48.840;9.162;2022-11-11T02:37:51;5.50;99.90
35541;DHT22;21650;48.840;9.162;2022-11-11T02:40:28;5.50;99.90
35541;DHT22;21650;48.840;9.162;2022-11-11T02:42:56;5.60;99.90
35541;DHT22;21650;48.840;9.162;2022-11-11T02:45:21;5.50;99.90
35541;DHT22;21650;48.840;9.162;2022-11-11T02:47:47;5.50;99.90
35541;DHT22;21650;48.840;9.162;2022-11-11T02:50:12;5.50;99.90
35541;DHT22;21650;48.840;9.162;2022-11-11T02:52:38;5.50;99.90
35541;DHT22;21650;48.840;9.162;2022-11-11T02:55:04;5.50;99.90
35541;DHT22;21650;48.840;9.162;2022-11-11T02:57:30;5.40;99.90
35541;DHT22;21650;48.840;9.162;2022-11-11T02:59:58;5.20;99.90
35541;DHT22;21650;48.840;9.162;2022-11-11T03:02:24;5.30;99.90
35541;DHT22;21650;48.840;9.162;2022-11-11T03:04:56;5.40;99.90
35541;DHT22;21650;48.840;9.162;2022-11-11T03:07:22;5.30;99.90
35541;DHT22;21650;48.840;9.162;2022-11-11T03:09:48;5.30;99.90
35541;DHT22;21650;48.840;9.162;2022-11-11T03:12:14;5.40;99.90
35541;DHT22;21650;48.840;9.162;2022-11-11T03:14:40;5.40;99.90
35541;DHT22;21650;48.840;9.162;2022-11-11T03:17:06;5.30;99.90
35541;DHT22;21650;48.840;9.162;2022-11-11T03:19:50;5.30;99.90
35541;DHT22;21650;48.840;9.162;2022-11-11T03:22:15;5.30;99.90
35541;DHT22;21650;48.840;9.162;2022-11-11T03:24:41;5.30;99.90
35541;DHT22;21650;48.840;9.162;2022-11-11T03:27:25;5.30;99.90
35541;DHT22;21650;48.840;9.162;2022-11-11T03:29:51;5.40;99.90
35541;DHT22;21650;48.840;9.162;2022-11-11T03:32:16;5.30;99.90
35541;DHT22;21650;48.840;9.162;2022-11-11T03:34:42;5.30;99.90
35541;DHT22;21650;48.840;9.162;2022-11-11T03:37:09;5.30;99.90
35541;DHT22;21650;48.840;9.162;2022-11-11T03:39:53;5.30;99.90
35541;DHT22;21650;48.840;9.162;2022-11-11T03:42:19;5.30;99.90
35541;DHT22;21650;48.840;9.162;2022-11-11T03:44:45;5.30;99.90
35541;DHT22;21650;48.840;9.162;2022-11-11T03:47:10;5.40;99.90
35541;DHT22;21650;48.840;9.162;2022-11-11T03:49:36;5.40;99.90
35541;DHT22;21650;48.840;9.162;2022-11-11T03:52:02;5.30;99.90
35541;DHT22;21650;48.840;9.162;2022-11-11T03:54:27;5.30;99.90
35541;DHT22;21650;48.840;9.162;2022-11-11T03:56:53;5.30;99.90
35541;DHT22;21650;48.840;9.162;2022-11-11T03:59:39;5.30;99.90
35541;DHT22;21650;48.840;9.162;2022-11-11T04:02:04;5.10;99.90
35541;DHT22;21650;48.840;9.162;2022-11-11T04:04:48;5.10;99.90
35541;DHT22;21650;48.840;9.162;2022-11-11T04:07:43;5.10;99.90
35541;DHT22;21650;48.840;9.162;2022-11-11T04:10:28;5.10;99.90
35541;DHT22;21650;48.840;9.162;2022-11-11T04:12:54;5.20;99.90
35541;DHT22;21650;48.840;9.162;2022-11-11T04:15:39;5.20;99.90
35541;DHT22;21650;48.840;9.162;2022-11-11T04:18:23;5.20;99.90
35541;DHT22;21650;48.840;9.162;2022-11-11T04:21:08;5.20;99.90
35541;DHT22;21650;48.840;9.162;2022-11-11T04:23:52;5.20;99.90
35541;DHT22;21650;48.840;9.162;2022-11-11T04:26:18;5.20;99.90
35541;DHT22;21650;48.840;9.162;2022-11-11T04:28:44;5.20;99.90
35541;DHT22;21650;48.840;9.162;2022-11-11T04:31:28;5.10;99.90
35541;DHT22;21650;48.840;9.162;2022-11-11T04:33:53;5.10;99.90
35541;DHT22;21650;48.840;9.162;2022-11-11T04:36:19;5.10;99.90
35541;DHT22;21650;48.840;9.162;2022-11-11T04:38:44;5.10;99.90
35541;DHT22;21650;48.840;9.162;2022-11-11T04:41:28;5.10;99.90
35541;DHT22;21650;48.840;9.162;2022-11-11T04:43:54;5.00;99.90
35541;DHT22;21650;48.840;9.162;2022-11-11T04:46:38;4.90;99.90
35541;DHT22;21650;48.840;9.162;2022-11-11T04:49:03;5.00;99.90
35541;DHT22;21650;48.840;9.162;2022-11-11T04:51:29;5.00;99.90
35541;DHT22;21650;48.840;9.162;2022-11-11T04:54:14;4.90;99.90
35541;DHT22;21650;48.840;9.162;2022-11-11T04:56:40;5.00;99.90
35541;DHT22;21650;48.840;9.162;2022-11-11T04:59:17;5.00;99.90
35541;DHT22;21650;48.840;9.162;2022-11-11T05:01:44;5.00;99.90
35541;DHT22;21650;48.840;9.162;2022-11-11T05:04:29;5.00;99.90
35541;DHT22;21650;48.840;9.162;2022-11-11T05:06:55;5.00;99.90
35541;DHT22;21650;48.840;9.162;2022-11-11T05:09:39;5.10;99.90
35541;DHT22;21650;48.840;9.162;2022-11-11T05:12:05;5.00;99.90
35541;DHT22;21650;48.840;9.162;2022-11-11T05:14:31;4.90;99.90
35541;DHT22;21650;48.840;9.162;2022-11-11T05:17:15;5.00;99.90
35541;DHT22;21650;48.840;9.162;2022-11-11T05:19:59;5.00;99.90
35541;DHT22;21650;48.840;9.162;2022-11-11T05:22:43;5.00;99.90
35541;DHT22;21650;48.840;9.162;2022-11-11T05:25:11;5.00;99.90
35541;DHT22;21650;48.840;9.162;2022-11-11T05:27:56;4.90;99.90
35541;DHT22;21650;48.840;9.162;2022-11-11T05:30:22;4.90;99.90
35541;DHT22;21650;48.840;9.162;2022-11-11T05:32:48;4.90;99.90
35541;DHT22;21650;48.840;9.162;2022-11-11T05:35:14;4.90;99.90
35541;DHT22;21650;48.840;9.162;2022-11-11T05:37:41;4.90;99.90
35541;DHT22;21650;48.840;9.162;2022-11-11T05:40:08;4.90;99.90
35541;DHT22;21650;48.840;9.162;2022-11-11T05:42:34;4.80;99.90
35541;DHT22;21650;48.840;9.162;2022-11-11T05:45:00;4.90;99.90
35541;DHT22;21650;48.840;9.162;2022-11-11T05:47:25;4.80;99.90
35541;DHT22;21650;48.840;9.162;2022-11-11T05:49:51;4.80;99.90
35541;DHT22;21650;48.840;9.162;2022-11-11T05:52:17;4.90;99.90
35541;DHT22;21650;48.840;9.162;2022-11-11T05:54:43;4.80;99.90
35541;DHT22;21650;48.840;9.162;2022-11-11T05:57:09;4.80;99.90
35541;DHT22;21650;48.840;9.162;2022-11-11T05:59:35;4.80;99.90
35541;DHT22;21650;48.840;9.162;2022-11-11T06:02:01;4.90;99.90
35541;DHT22;21650;48.840;9.162;2022-11-11T06:04:26;4.80;99.90
35541;DHT22;21650;48.840;9.162;2022-11-11T06:06:53;4.90;99.90
35541;DHT22;21650;48.840;9.162;2022-11-11T06:09:18;4.90;99.90
35541;DHT22;21650;48.840;9.162;2022-11-11T06:11:44;4.90;99.90
35541;DHT22;21650;48.840;9.162;2022-11-11T06:14:09;4.80;99.90
35541;DHT22;21650;48.840;9.162;2022-11-11T06:16:35;4.90;99.90
35541;DHT22;21650;48.840;9.162;2022-11-11T06:19:00;4.90;99.90
35541;DHT22;21650;48.840;9.162;2022-11-11T06:21:29;4.80;99.90
35541;DHT22;21650;48.840;9.162;2022-11-11T06:23:55;4.80;99.90
35541;DHT22;21650;48.840;9.162;2022-11-11T06:26:20;4.80;99.90
35541;DHT22;21650;48.840;9.162;2022-11-11T06:28:51;4.80;99.90
35541;DHT22;21650;48.840;9.162;2022-11-11T06:31:22;4.80;99.90
35541;DHT22;21650;48.840;9.162;2022-11-11T06:33:48;4.80;99.90
35541;DHT22;21650;48.840;9.162;2022-11-11T06:36:17;4.80;99.90
35541;DHT22;21650;48.840;9.162;2022-11-11T06:38:42;4.80;99.90
35541;DHT22;21650;48.840;9.162;2022-11-11T06:41:09;4.90;99.90
35541;DHT22;21650;48.840;9.162;2022-11-11T06:43:37;4.80;99.90
35541;DHT22;21650;48.840;9.162;2022-11-11T06:46:03;4.80;99.90
35541;DHT22;21650;48.840;9.162;2022-11-11T06:48:29;4.70;99.90
35541;DHT22;21650;48.840;9.162;2022-11-11T06:51:05;4.50;99.90
35541;DHT22;21650;48.840;9.162;2022-11-11T06:53:31;4.70;99.90
35541;DHT22;21650;48.840;9.162;2022-11-11T06:55:57;4.70;99.90
35541;DHT22;21650;48.840;9.162;2022-11-11T06:58:22;4.70;99.90
35541;DHT22;21650;48.840;9.162;2022-11-11T07:00:48;4.70;99.90
35541;DHT22;21650;48.840;9.162;2022-11-11T07:03:17;4.90;99.90
35541;DHT22;21650;48.840;9.162;2022-11-11T07:05:43;4.90;99.90
35541;DHT22;21650;48.840;9.162;2022-11-11T07:08:14;4.90;99.90
35541;DHT22;21650;48.840;9.162;2022-11-11T07:10:43;4.80;99.90
35541;DHT22;21650;48.840;9.162;2022-11-11T07:13:09;4.90;99.90
35541;DHT22;21650;48.840;9.162;2022-11-11T07:15:36;4.90;99.90
35541;DHT22;21650;48.840;9.162;2022-11-11T07:18:02;4.90;99.90
35541;DHT22;21650;48.840;9.162;2022-11-11T07:20:28;5.00;99.90
35541;DHT22;21650;48.840;9.162;2022-11-11T07:22:53;5.10;99.90
35541;DHT22;21650;48.840;9.162;2022-11-11T07:25:19;5.10;99.90
35541;DHT22;21650;48.840;9.162;2022-11-11T07:27:44;5.20;99.90
35541;DHT22;21650;48.840;9.162;2022-11-11T07:30:10;5.20;99.90
35541;DHT22;21650;48.840;9.162;2022-11-11T07:32:42;5.20;99.90
35541;DHT22;21650;48.840;9.162;2022-11-11T07:35:09;5.30;99.90
35541;DHT22;21650;48.840;9.162;2022-11-11T07:37:35;5.40;99.90
35541;DHT22;21650;48.840;9.162;2022-11-11T07:40:01;5.40;99.90
35541;DHT22;21650;48.840;9.162;2022-11-11T07:42:27;5.50;99.90
35541;DHT22;21650;48.840;9.162;2022-11-11T07:44:52;5.60;99.90
35541;DHT22;21650;48.840;9.162;2022-11-11T07:47:18;5.60;99.90
35541;DHT22;21650;48.840;9.162;2022-11-11T07:49:44;5.60;99.90
35541;DHT22;21650;48.840;9.162;2022-11-11T07:52:10;5.60;99.90
35541;DHT22;21650;48.840;9.162;2022-11-11T07:54:35;5.60;99.90
35541;DHT22;21650;48.840;9.162;2022-11-11T07:57:01;5.70;99.90
35541;DHT22;21650;48.840;9.162;2022-11-11T07:59:26;5.70;99.90
35541;DHT22;21650;48.840;9.162;2022-11-11T08:01:52;5.70;99.90
35541;DHT22;21650;48.840;9.162;2022-11-11T08:04:17;5.70;99.90
35541;DHT22;21650;48.840;9.162;2022-11-11T08:06:43;5.80;99.90
35541;DHT22;21650;48.840;9.162;2022-11-11T08:09:08;5.80;99.90
35541;DHT22;21650;48.840;9.162;2022-11-11T08:11:34;5.80;99.90
35541;DHT22;21650;48.840;9.162;2022-11-11T08:14:18;5.90;99.90
35541;DHT22;21650;48.840;9.162;2022-11-11T08:16:43;5.90;99.90
35541;DHT22;21650;48.840;9.162;2022-11-11T08:19:09;5.90;99.90
35541;DHT22;21650;48.840;9.162;2022-11-11T08:21:34;6.00;99.90
35541;DHT22;21650;48.840;9.162;2022-11-11T08:24:00;6.00;99.90
35541;DHT22;21650;48.840;9.162;2022-11-11T08:26:25;6.00;99.90
35541;DHT22;21650;48.840;9.162;2022-11-11T08:28:51;6.00;99.90
35541;DHT22;21650;48.840;9.162;2022-11-11T08:31:17;6.10;99.90
35541;DHT22;21650;48.840;9.162;2022-11-11T08:33:43;6.20;99.90
35541;DHT22;21650;48.840;9.162;2022-11-11T08:36:09;6.30;99.90
35541;DHT22;21650;48.840;9.162;2022-11-11T08:38:36;6.30;99.90
35541;DHT22;21650;48.840;9.162;2022-11-11T08:41:03;6.40;99.90
35541;DHT22;21650;48.840;9.162;2022-11-11T08:43:30;6.40;99.90
35541;DHT22;21650;48.840;9.162;2022-11-11T08:45:57;6.40;99.90
35541;DHT22;21650;48.840;9.162;2022-11-11T08:48:23;6.40;99.90
35541;DHT22;21650;48.840;9.162;2022-11-11T08:50:51;6.40;99.90
35541;DHT22;21650;48.840;9.162;2022-11-11T08:53:16;6.40;99.90
35541;DHT22;21650;48.840;9.162;2022-11-11T08:55:42;6.50;99.90
35541;DHT22;21650;48.840;9.162;2022-11-11T08:58:10;6.40;99.90
35541;DHT22;21650;48.840;9.162;2022-11-11T09:00:36;6.50;99.90
35541;DHT22;21650;48.840;9.162;2022-11-11T09:03:03;6.50;99.90
35541;DHT22;21650;48.840;9.162;2022-11-11T09:05:29;6.60;99.90
35541;DHT22;21650;48.840;9.162;2022-11-11T09:07:55;6.70;99.90
35541;DHT22;21650;48.840;9.162;2022-11-11T09:10:21;6.80;99.90
35541;DHT22;21650;48.840;9.162;2022-11-11T09:12:47;6.80;99.90
35541;DHT22;21650;48.840;9.162;2022-11-11T09:15:12;6.90;99.90
35541;DHT22;21650;48.840;9.162;2022-11-11T09:17:38;7.00;99.90
35541;DHT22;21650;48.840;9.162;2022-11-11T09:20:04;7.00;99.90
35541;DHT22;21650;48.840;9.162;2022-11-11T09:22:29;7.20;99.90
35541;DHT22;21650;48.840;9.162;2022-11-11T09:24:55;7.20;99.90
35541;DHT22;21650;48.840;9.162;2022-11-11T09:27:21;7.30;99.90
35541;DHT22;21650;48.840;9.162;2022-11-11T09:29:47;7.40;99.90
35541;DHT22;21650;48.840;9.162;2022-11-11T09:32:12;7.50;99.90
35541;DHT22;21650;48.840;9.162;2022-11-11T09:34:38;7.60;99.90
35541;DHT22;21650;48.840;9.162;2022-11-11T09:37:03;7.70;99.90
35541;DHT22;21650;48.840;9.162;2022-11-11T09:39:29;7.80;99.90
35541;DHT22;21650;48.840;9.162;2022-11-11T09:42:32;7.90;99.90
35541;DHT22;21650;48.840;9.162;2022-11-11T09:45:19;8.00;99.90
35541;DHT22;21650;48.840;9.162;2022-11-11T09:50:30;8.20;99.90
35541;DHT22;21650;48.840;9.162;2022-11-11T09:53:12;8.30;99.90
35541;DHT22;21650;48.840;9.162;2022-11-11T09:58:49;8.60;99.90
35541;DHT22;21650;48.840;9.162;2022-11-11T10:01:22;8.80;99.90
35541;DHT22;21650;48.840;9.162;2022-11-11T10:06:29;8.90;99.90
35541;DHT22;21650;48.840;9.162;2022-11-11T10:14:17;9.10;99.90
35541;DHT22;21650;48.840;9.162;2022-11-11T10:16:57;9.20;99.90
35541;DHT22;21650;48.840;9.162;2022-11-11T10:19:29;9.30;99.90
35541;DHT22;21650;48.840;9.162;2022-11-11T10:22:01;9.30;99.90
35541;DHT22;21650;48.840;9.162;2022-11-11T10:24:40;9.20;99.90
35541;DHT22;21650;48.840;9.162;2022-11-11T10:27:14;9.20;99.90
35541;DHT22;21650;48.840;9.162;2022-11-11T10:29:42;9.30;99.90
35541;DHT22;21650;48.840;9.162;2022-11-11T10:32:27;9.20;99.90
35541;DHT22;21650;48.840;9.162;2022-11-11T10:34:53;9.20;99.90
35541;DHT22;21650;48.840;9.162;2022-11-11T10:37:24;9.20;99.90
35541;DHT22;21650;48.840;9.162;2022-11-11T10:40:04;9.20;99.90
35541;DHT22;21650;48.840;9.162;2022-11-11T10:42:32;9.30;99.90
35541;DHT22;21650;48.840;9.162;2022-11-11T10:44:59;9.40;99.90
35541;DHT22;21650;48.840;9.162;2022-11-11T10:50:04;9.70;99.90
35541;DHT22;21650;48.840;9.162;2022-11-11T10:52:38;9.70;99.90
35541;DHT22;21650;48.840;9.162;2022-11-11T10:57:44;9.60;99.90
35541;DHT22;21650;48.840;9.162;2022-11-11T11:00:13;9.70;99.90
35541;DHT22;21650;48.840;9.162;2022-11-11T11:05:24;10.00;99.90
35541;DHT22;21650;48.840;9.162;2022-11-11T11:07:57;10.10;99.90
35541;DHT22;21650;48.840;9.162;2022-11-11T11:10:29;10.10;99.90
35541;DHT22;21650;48.840;9.162;2022-11-11T11:13:06;10.10;99.90
35541;DHT22;21650;48.840;9.162;2022-11-11T11:15:37;10.20;99.90
35541;DHT22;21650;48.840;9.162;2022-11-11T11:18:12;10.30;99.90
35541;DHT22;21650;48.840;9.162;2022-11-11T11:20:38;10.20;99.90
35541;DHT22;21650;48.840;9.162;2022-11-11T11:23:34;10.20;99.90
35541;DHT22;21650;48.840;9.162;2022-11-11T11:26:00;10.30;99.90
35541;DHT22;21650;48.840;9.162;2022-11-11T11:28:27;10.30;99.90
35541;DHT22;21650;48.840;9.162;2022-11-11T11:31:04;10.40;99.90
35541;DHT22;21650;48.840;9.162;2022-11-11T11:33:53;10.50;99.90
35541;DHT22;21650;48.840;9.162;2022-11-11T11:36:20;10.70;99.90
35541;DHT22;21650;48.840;9.162;2022-11-11T11:38:48;10.80;99.90
35541;DHT22;21650;48.840;9.162;2022-11-11T11:41:17;10.80;99.90
35541;DHT22;21650;48.840;9.162;2022-11-11T11:43:59;10.80;99.90
35541;DHT22;21650;48.840;9.162;2022-11-11T11:46:37;10.80;99.90
35541;DHT22;21650;48.840;9.162;2022-11-11T11:49:22;11.00;99.90
35541;DHT22;21650;48.840;9.162;2022-11-11T11:51:56;11.00;99.90
35541;DHT22;21650;48.840;9.162;2022-11-11T11:57:13;11.10;99.90
35541;DHT22;21650;48.840;9.162;2022-11-11T11:59:52;11.10;99.90
35541;DHT22;21650;48.840;9.162;2022-11-11T12:24:27;11.60;99.90
35541;DHT22;21650;48.840;9.162;2022-11-11T12:27:16;11.70;99.90
35541;DHT22;21650;48.840;9.162;2022-11-11T12:41:19;11.80;99.90
35541;DHT22;21650;48.840;9.162;2022-11-11T12:44:05;11.90;99.90
35541;DHT22;21650;48.840;9.162;2022-11-11T12:47:06;11.80;99.90
35541;DHT22;21650;48.840;9.162;2022-11-11T12:52:11;11.70;99.90
35541;DHT22;21650;48.840;9.162;2022-11-11T12:57:36;11.90;99.90
35541;DHT22;21650;48.840;9.162;2022-11-11T13:00:19;12.00;99.90
35541;DHT22;21650;48.840;9.162;2022-11-11T13:14:27;12.10;99.90
35541;DHT22;21650;48.840;9.162;2022-11-11T13:16:57;12.10;99.90
35541;DHT22;21650;48.840;9.162;2022-11-11T13:19:32;12.10;99.90
35541;DHT22;21650;48.840;9.162;2022-11-11T13:22:06;12.10;99.90
35541;DHT22;21650;48.840;9.162;2022-11-11T13:24:35;12.20;99.90
35541;DHT22;21650;48.840;9.162;2022-11-11T13:27:06;12.20;99.90
35541;DHT22;21650;48.840;9.162;2022-11-11T13:30:03;12.20;99.90
35541;DHT22;21650;48.840;9.162;2022-11-11T13:32:38;12.30;99.90
35541;DHT22;21650;48.840;9.162;2022-11-11T13:35:21;12.40;99.90
35541;DHT22;21650;48.840;9.162;2022-11-11T13:37:48;12.50;99.90
35541;DHT22;21650;48.840;9.162;2022-11-11T13:40:41;12.50;99.90
35541;DHT22;21650;48.840;9.162;2022-11-11T13:43:27;12.50;99.90
35541;DHT22;21650;48.840;9.162;2022-11-11T13:45:56;12.50;99.90
35541;DHT22;21650;48.840;9.162;2022-11-11T13:48:24;12.60;99.90
35541;DHT22;21650;48.840;9.162;2022-11-11T13:50:51;12.60;99.90
35541;DHT22;21650;48.840;9.162;2022-11-11T13:53:27;12.60;99.90
35541;DHT22;21650;48.840;9.162;2022-11-11T13:56:00;12.40;99.90
35541;DHT22;21650;48.840;9.162;2022-11-11T13:58:30;12.40;99.90
35541;DHT22;21650;48.840;9.162;2022-11-11T14:00:59;12.50;99.90
35541;DHT22;21650;48.840;9.162;2022-11-11T14:21:49;12.60;99.90
35541;DHT22;21650;48.840;9.162;2022-11-11T14:27:23;12.60;99.90
35541;DHT22;21650;48.840;9.162;2022-11-11T14:29:55;12.50;99.90
35541;DHT22;21650;48.840;9.162;2022-11-11T14:32:48;12.60;99.90
35541;DHT22;21650;48.840;9.162;2022-11-11T14:35:38;12.60;99.90
35541;DHT22;21650;48.840;9.162;2022-11-11T14:38:33;12.50;99.90
35541;DHT22;21650;48.840;9.162;2022-11-11T14:52:25;12.30;99.90
35541;DHT22;21650;48.840;9.162;2022-11-11T14:57:47;12.10;99.90
35541;DHT22;21650;48.840;9.162;2022-11-11T15:00:28;12.10;99.90
35541;DHT22;21650;48.840;9.162;2022-11-11T15:03:00;12.00;99.90
35541;DHT22;21650;48.840;9.162;2022-11-11T15:05:51;11.80;99.90
35541;DHT22;21650;48.840;9.162;2022-11-11T15:08:36;11.80;99.90
35541;DHT22;21650;48.840;9.162;2022-11-11T15:28:10;11.00;99.90
35541;DHT22;21650;48.840;9.162;2022-11-11T15:34:02;10.70;99.90
35541;DHT22;21650;48.840;9.162;2022-11-11T15:39:13;10.50;99.90
35541;DHT22;21650;48.840;9.162;2022-11-11T15:41:42;10.40;99.90
35541;DHT22;21650;48.840;9.162;2022-11-11T15:44:18;10.30;99.90
35541;DHT22;21650;48.840;9.162;2022-11-11T15:46:45;10.20;99.90
35541;DHT22;21650;48.840;9.162;2022-11-11T15:49:36;10.10;99.90
35541;DHT22;21650;48.840;9.162;2022-11-11T15:52:02;10.00;99.90
35541;DHT22;21650;48.840;9.162;2022-11-11T15:54:32;9.90;99.90
35541;DHT22;21650;48.840;9.162;2022-11-11T15:56:57;9.80;99.90
35541;DHT22;21650;48.840;9.162;2022-11-11T15:59:29;9.70;99.90
35541;DHT22;21650;48.840;9.162;2022-11-11T16:02:07;9.60;99.90
35541;DHT22;21650;48.840;9.162;2022-11-11T16:04:46;9.50;99.90
35541;DHT22;21650;48.840;9.162;2022-11-11T16:07:29;9.40;99.90
35541;DHT22;21650;48.840;9.162;2022-11-11T16:09:58;9.40;99.90
35541;DHT22;21650;48.840;9.162;2022-11-11T16:12:41;9.30;99.90
35541;DHT22;21650;48.840;9.162;2022-11-11T16:15:08;9.20;99.90
35541;DHT22;21650;48.840;9.162;2022-11-11T16:17:38;9.20;99.90
35541;DHT22;21650;48.840;9.162;2022-11-11T16:20:12;9.10;99.90
35541;DHT22;21650;48.840;9.162;2022-11-11T16:22:39;9.00;99.90
35541;DHT22;21650;48.840;9.162;2022-11-11T16:25:16;9.00;99.90
35541;DHT22;21650;48.840;9.162;2022-11-11T16:27:43;9.00;99.90
35541;DHT22;21650;48.840;9.162;2022-11-11T16:30:33;9.00;99.90
35541;DHT22;21650;48.840;9.162;2022-11-11T16:33:00;8.90;99.90
35541;DHT22;21650;48.840;9.162;2022-11-11T16:35:37;8.70;99.90
35541;DHT22;21650;48.840;9.162;2022-11-11T16:38:03;8.70;99.90
35541;DHT22;21650;48.840;9.162;2022-11-11T16:43:23;8.70;99.90
35541;DHT22;21650;48.840;9.162;2022-11-11T16:46:01;8.60;99.90
35541;DHT22;21650;48.840;9.162;2022-11-11T16:50:59;8.50;99.90
35541;DHT22;21650;48.840;9.162;2022-11-11T16:53:29;8.50;99.90
35541;DHT22;21650;48.840;9.162;2022-11-11T16:55:58;8.50;99.90
35541;DHT22;21650;48.840;9.162;2022-11-11T16:58:24;8.40;99.90
35541;DHT22;21650;48.840;9.162;2022-11-11T17:01:01;8.30;99.90
35541;DHT22;21650;48.840;9.162;2022-11-11T17:03:28;8.30;99.90
35541;DHT22;21650;48.840;9.162;2022-11-11T17:06:05;8.30;99.90
35541;DHT22;21650;48.840;9.162;2022-11-11T17:08:45;8.30;99.90
35541;DHT22;21650;48.840;9.162;2022-11-11T17:13:56;8.20;99.90
35541;DHT22;21650;48.840;9.162;2022-11-11T17:16:22;8.10;99.90
35541;DHT22;21650;48.840;9.162;2022-11-11T17:18:47;8.10;99.90
35541;DHT22;21650;48.840;9.162;2022-11-11T17:21:13;8.10;99.90
35541;DHT22;21650;48.840;9.162;2022-11-11T17:23:39;8.00;99.90
35541;DHT22;21650;48.840;9.162;2022-11-11T17:26:04;8.00;99.90
35541;DHT22;21650;48.840;9.162;2022-11-11T17:28:32;7.90;99.90
35541;DHT22;21650;48.840;9.162;2022-11-11T17:31:06;7.90;99.90
35541;DHT22;21650;48.840;9.162;2022-11-11T17:33:32;7.90;99.90
35541;DHT22;21650;48.840;9.162;2022-11-11T17:35:58;7.90;99.90
35541;DHT22;21650;48.840;9.162;2022-11-11T17:38:25;7.80;99.90
35541;DHT22;21650;48.840;9.162;2022-11-11T17:40:50;7.80;99.90
35541;DHT22;21650;48.840;9.162;2022-11-11T17:43:16;7.80;99.90
35541;DHT22;21650;48.840;9.162;2022-11-11T17:45:42;7.80;99.90
35541;DHT22;21650;48.840;9.162;2022-11-11T17:48:08;7.70;99.90
35541;DHT22;21650;48.840;9.162;2022-11-11T17:50:38;7.70;99.90
35541;DHT22;21650;48.840;9.162;2022-11-11T17:53:05;7.70;99.90
35541;DHT22;21650;48.840;9.162;2022-11-11T17:55:31;7.70;99.90
35541;DHT22;21650;48.840;9.162;2022-11-11T17:57:58;7.60;99.90
35541;DHT22;21650;48.840;9.162;2022-11-11T18:00:24;7.60;99.90
35541;DHT22;21650;48.840;9.162;2022-11-11T18:02:50;7.50;99.90
35541;DHT22;21650;48.840;9.162;2022-11-11T18:05:15;7.50;99.90
35541;DHT22;21650;48.840;9.162;2022-11-11T18:07:41;7.50;99.90
35541;DHT22;21650;48.840;9.162;2022-11-11T18:10:07;7.50;99.90
35541;DHT22;21650;48.840;9.162;2022-11-11T18:12:33;7.40;99.90
35541;DHT22;21650;48.840;9.162;2022-11-11T18:14:59;7.40;99.90
35541;DHT22;21650;48.840;9.162;2022-11-11T18:17:24;7.30;99.90
35541;DHT22;21650;48.840;9.162;2022-11-11T18:19:50;7.30;99.90
35541;DHT22;21650;48.840;9.162;2022-11-11T18:22:15;7.30;99.90
35541;DHT22;21650;48.840;9.162;2022-11-11T18:24:41;7.30;99.90
35541;DHT22;21650;48.840;9.162;2022-11-11T18:27:07;7.30;99.90
35541;DHT22;21650;48.840;9.162;2022-11-11T18:29:33;7.30;99.90